createdAt,value
2022-12-04T00:00:21.601Z,9.63
2022-12-04T00:03:24.733Z,9.10
2022-12-04T00:06:29.113Z,9.20
2022-12-04T00:09:32.142Z,9.27
2022-12-04T00:12:35.911Z,8.90
2022-12-04T00:15:42.814Z,9.00
2022-12-04T00:18:45.914Z,9.03
2022-12-04T00:21:50.567Z,8.37
2022-12-04T00:24:53.526Z,8.77
2022-12-04T00:27:56.374Z,8.50
2022-12-04T00:30:59.449Z,9.00
2022-12-04T00:34:07.598Z,7.80
2022-12-04T00:37:12.961Z,8.03
2022-12-04T00:40:15.997Z,8.03
2022-12-04T00:43:18.886Z,8.30
2022-12-04T00:46:22.151Z,7.40
2022-12-04T00:49:25.162Z,7.73
2022-12-04T00:52:29.511Z,7.40
2022-12-04T00:55:32.418Z,8.03
2022-12-04T00:58:35.363Z,7.27
2022-12-04T01:01:38.673Z,7.00
2022-12-04T01:04:41.642Z,7.30
2022-12-04T01:07:45.920Z,6.93
2022-12-04T01:10:48.937Z,7.27
2022-12-04T01:13:51.881Z,6.60
2022-12-04T01:16:54.823Z,6.73
2022-12-04T01:19:58.127Z,7.20
2022-12-04T01:23:02.737Z,7.40
2022-12-04T01:26:05.860Z,6.27
2022-12-04T01:29:08.724Z,6.80
2022-12-04T01:32:11.774Z,6.57
2022-12-04T01:35:14.827Z,6.17
2022-12-04T01:38:19.193Z,6.70
2022-12-04T01:41:23.344Z,6.67
2022-12-04T01:44:27.405Z,6.20
2022-12-04T01:47:30.297Z,5.53
2022-12-04T01:50:33.291Z,5.97
2022-12-04T01:53:39.295Z,6.23
2022-12-04T01:56:43.771Z,5.93
2022-12-04T01:59:49.128Z,5.67
2022-12-04T02:02:52.465Z,5.80
2022-12-04T02:05:55.634Z,5.43
2022-12-04T02:09:00.294Z,5.30
2022-12-04T02:12:07.315Z,5.43
2022-12-04T02:15:13.458Z,5.20
2022-12-04T02:18:20.069Z,4.90
2022-12-04T02:21:25.788Z,4.97
2022-12-04T02:24:49.788Z,4.80
2022-12-04T02:28:06.168Z,5.10
2022-12-04T02:31:10.866Z,4.90
2022-12-04T02:34:16.032Z,5.07
2022-12-04T02:37:20.102Z,4.80
2022-12-04T02:40:26.563Z,4.93
2022-12-04T02:43:34.092Z,4.90
2022-12-04T02:46:38.894Z,4.93
2022-12-04T02:49:43.554Z,4.80
2022-12-04T02:52:48.715Z,4.53
2022-12-04T02:55:53.756Z,3.93
2022-12-04T02:58:59.608Z,4.67
2022-12-04T03:02:04.926Z,4.57
2022-12-04T03:05:10.574Z,4.47
2022-12-04T03:08:17.235Z,4.40
2022-12-04T03:11:20.320Z,4.67
2022-12-04T03:14:26.007Z,3.80
2022-12-04T03:17:30.875Z,4.70
2022-12-04T03:20:35.222Z,4.80
2022-12-04T03:23:40.841Z,4.10
2022-12-04T03:26:46.431Z,4.20
2022-12-04T03:29:55.180Z,3.80
2022-12-04T03:33:01.609Z,3.63
2022-12-04T03:36:08.667Z,4.13
2022-12-04T03:39:15.886Z,4.20
2022-12-04T03:42:21.253Z,4.30
2022-12-04T03:45:27.653Z,3.57
2022-12-04T03:48:32.987Z,4.00
2022-12-04T03:51:37.916Z,3.70
2022-12-04T03:54:43.754Z,3.90
2022-12-04T03:57:48.180Z,3.53
2022-12-04T04:00:53.291Z,3.67
2022-12-04T04:03:58.231Z,3.53
2022-12-04T04:07:04.016Z,3.70
2022-12-04T04:10:09.470Z,3.43
2022-12-04T04:13:32.397Z,3.27
2022-12-04T04:16:55.612Z,3.90
2022-12-04T04:20:18.459Z,2.93
2022-12-04T04:23:53.718Z,2.90
2022-12-04T04:26:57.255Z,3.40
2022-12-04T04:30:00.277Z,3.53
2022-12-04T04:33:07.637Z,3.87
2022-12-04T04:36:16.451Z,3.47
2022-12-04T04:39:22.001Z,3.70
2022-12-04T04:42:28.104Z,3.40
2022-12-04T04:45:34.954Z,3.37
2022-12-04T04:48:41.800Z,3.30
2022-12-04T04:51:45.555Z,3.10
2022-12-04T04:54:48.693Z,3.23
2022-12-04T04:57:51.536Z,3.37
2022-12-04T05:00:58.185Z,3.10
2022-12-04T05:04:02.803Z,3.37
2022-12-04T05:07:05.671Z,3.00
2022-12-04T05:10:09.644Z,3.33
2022-12-04T05:13:13.218Z,2.90
2022-12-04T05:16:16.449Z,3.27
2022-12-04T05:19:38.113Z,2.87
2022-12-04T05:22:40.946Z,3.33
2022-12-04T05:25:43.890Z,3.20
2022-12-04T05:28:46.853Z,3.73
2022-12-04T05:31:49.849Z,3.50
2022-12-04T05:34:55.035Z,3.03
2022-12-04T05:37:57.942Z,3.63
2022-12-04T05:41:01.058Z,3.00
2022-12-04T05:44:04.277Z,3.03
2022-12-04T05:47:07.354Z,3.87
2022-12-04T05:50:12.740Z,3.10
2022-12-04T05:53:15.658Z,3.97
2022-12-04T05:56:18.669Z,3.43
2022-12-04T05:59:21.676Z,4.57
2022-12-04T06:02:24.617Z,4.00
2022-12-04T06:05:28.945Z,4.30
2022-12-04T06:08:32.302Z,3.70
2022-12-04T06:11:36.352Z,4.50
2022-12-04T06:14:39.915Z,3.67
2022-12-04T06:17:43.063Z,4.00
2022-12-04T06:20:47.561Z,4.20
2022-12-04T06:23:50.546Z,4.20
2022-12-04T06:27:26.080Z,5.43
2022-12-04T06:30:19.874Z,3.57
2022-12-04T06:33:22.922Z,3.40
2022-12-04T06:36:27.734Z,4.00
2022-12-04T06:39:30.632Z,4.03
2022-12-04T06:42:33.569Z,3.70
2022-12-04T06:45:36.571Z,4.30
2022-12-04T06:48:39.765Z,3.50
2022-12-04T06:51:44.173Z,3.60
2022-12-04T06:54:47.127Z,3.70
2022-12-04T06:57:50.083Z,3.50
2022-12-04T07:00:53.095Z,3.27
2022-12-04T07:03:57.038Z,3.67
2022-12-04T07:07:01.466Z,3.80
2022-12-04T07:10:04.508Z,3.50
2022-12-04T07:13:07.956Z,3.40
2022-12-04T07:16:12.578Z,3.20
2022-12-04T07:19:15.976Z,4.03
2022-12-04T07:22:20.355Z,3.40
2022-12-04T07:25:23.510Z,4.17
2022-12-04T07:28:28.875Z,4.20
2022-12-04T07:31:31.847Z,3.97
2022-12-04T07:34:35.957Z,3.53
2022-12-04T07:37:40.705Z,3.77
2022-12-04T07:40:43.677Z,4.20
2022-12-04T07:43:46.881Z,4.10
2022-12-04T07:46:49.803Z,5.00
2022-12-04T07:49:53.103Z,6.50
2022-12-04T07:52:57.511Z,7.60
2022-12-04T07:56:00.465Z,8.23
2022-12-04T07:59:03.943Z,9.07
2022-12-04T08:02:07.185Z,10.40
2022-12-04T08:05:10.253Z,11.50
2022-12-04T08:08:15.373Z,10.90
2022-12-04T08:11:19.936Z,11.10
2022-12-04T08:14:22.953Z,11.90
2022-12-04T08:17:26.111Z,12.40
2022-12-04T08:20:29.170Z,12.67
2022-12-04T08:23:34.541Z,12.27
2022-12-04T08:26:39.276Z,13.00
2022-12-04T08:29:42.689Z,14.23
2022-12-04T08:32:45.783Z,15.80
2022-12-04T08:35:48.803Z,15.77
2022-12-04T08:38:55.978Z,17.23
2022-12-04T08:41:59.198Z,17.60
2022-12-04T08:45:02.310Z,18.57
2022-12-04T08:48:05.499Z,18.33
2022-12-04T08:51:09.379Z,17.93
2022-12-04T08:54:14.227Z,18.93
2022-12-04T08:57:17.722Z,19.30
2022-12-04T09:00:21.142Z,19.07
2022-12-04T09:03:29.306Z,18.73
2022-12-04T09:06:34.765Z,20.80
2022-12-04T09:09:44.947Z,21.47
2022-12-04T09:12:52.115Z,21.33
2022-12-04T09:15:56.372Z,22.00
2022-12-04T09:18:59.758Z,23.00
2022-12-04T09:22:04.974Z,21.40
2022-12-04T09:25:10.540Z,21.50
2022-12-04T09:28:13.693Z,21.27
2022-12-04T09:31:18.028Z,21.57
2022-12-04T09:34:22.129Z,20.07
2022-12-04T09:37:25.284Z,21.70
2022-12-04T09:40:37.191Z,22.20
2022-12-04T09:43:44.771Z,23.30
2022-12-04T09:46:51.353Z,23.17
2022-12-04T09:49:57.312Z,23.47
2022-12-04T09:53:03.838Z,23.67
2022-12-04T09:56:11.438Z,23.17
2022-12-04T09:59:17.662Z,24.20
2022-12-04T10:02:31.042Z,23.10
2022-12-04T10:05:44.188Z,22.40
2022-12-04T10:08:48.011Z,23.77
2022-12-04T10:11:55.032Z,22.67
2022-12-04T10:15:03.861Z,24.53
2022-12-04T10:18:15.530Z,24.20
2022-12-04T10:21:31.009Z,22.77
2022-12-04T10:24:39.775Z,24.10
2022-12-04T10:27:46.339Z,24.40
2022-12-04T10:30:50.273Z,25.87
2022-12-04T10:33:59.919Z,26.37
2022-12-04T10:37:09.203Z,25.70
2022-12-04T10:40:15.850Z,27.10
2022-12-04T10:43:24.373Z,26.80
2022-12-04T10:46:30.356Z,28.00
2022-12-04T10:49:36.974Z,30.90
2022-12-04T10:52:40.470Z,31.60
2022-12-04T10:55:43.772Z,33.13
2022-12-04T10:58:59.419Z,35.83
2022-12-04T11:02:06.947Z,37.30
2022-12-04T11:05:25.721Z,38.00
2022-12-04T11:08:33.528Z,40.10
2022-12-04T11:11:37.155Z,40.03
2022-12-04T11:14:47.018Z,38.70
2022-12-04T11:17:52.516Z,40.03
2022-12-04T11:20:58.735Z,40.43
2022-12-04T11:24:03.890Z,37.60
2022-12-04T11:27:08.639Z,38.90
2022-12-04T11:30:17.442Z,38.00
2022-12-04T11:33:24.432Z,37.23
2022-12-04T11:36:30.679Z,37.47
2022-12-04T11:39:36.357Z,36.10
2022-12-04T11:42:40.837Z,36.17
2022-12-04T11:45:54.995Z,33.47
2022-12-04T11:48:59.359Z,30.67
2022-12-04T11:52:09.497Z,26.10
2022-12-04T11:55:16.805Z,25.70
2022-12-04T11:58:27.339Z,26.93
2022-12-04T12:01:40.300Z,25.17
2022-12-04T12:05:02.715Z,23.60
2022-12-04T12:08:13.103Z,23.10
2022-12-04T12:11:21.319Z,22.57
2022-12-04T12:14:28.723Z,21.20
2022-12-04T12:17:39.170Z,22.23
2022-12-04T12:20:44.022Z,21.17
2022-12-04T12:24:06.222Z,21.07
2022-12-04T12:27:17.211Z,18.97
2022-12-04T12:30:21.385Z,18.50
2022-12-04T12:33:27.851Z,18.00
2022-12-04T12:36:33.812Z,17.97
2022-12-04T12:39:41.457Z,18.70
2022-12-04T12:42:53.664Z,17.23
2022-12-04T12:46:02.299Z,17.90
2022-12-04T12:49:12.571Z,16.13
2022-12-04T12:52:18.962Z,15.60
2022-12-04T12:55:26.053Z,17.00
2022-12-04T12:58:34.453Z,16.83
2022-12-04T13:01:42.270Z,18.00
2022-12-04T13:04:50.608Z,17.33
2022-12-04T13:07:58.710Z,17.90
2022-12-04T13:11:04.294Z,18.27
2022-12-04T13:14:08.133Z,18.10
2022-12-04T13:17:17.007Z,18.87
2022-12-04T13:20:25.376Z,18.43
2022-12-04T13:23:38.883Z,17.83
2022-12-04T13:26:49.640Z,17.53
2022-12-04T13:30:01.881Z,16.73
2022-12-04T13:33:21.298Z,15.30
2022-12-04T13:36:43.777Z,16.60
2022-12-04T13:40:21.458Z,17.33
2022-12-04T13:43:36.839Z,16.97
2022-12-04T13:46:42.238Z,17.00
2022-12-04T13:49:47.516Z,15.70
2022-12-04T13:52:54.557Z,15.67
2022-12-04T13:56:04.440Z,15.10
2022-12-04T13:59:23.478Z,15.07
2022-12-04T14:02:29.758Z,15.67
2022-12-04T14:05:35.953Z,14.13
2022-12-04T14:08:42.028Z,14.63
2022-12-04T14:11:47.466Z,13.83
2022-12-04T14:14:57.704Z,13.50
2022-12-04T14:18:04.425Z,12.73
2022-12-04T14:21:08.796Z,13.50
2022-12-04T14:24:16.893Z,12.90
2022-12-04T14:27:35.417Z,12.17
2022-12-04T14:30:40.587Z,11.87
2022-12-04T14:33:45.579Z,12.20
2022-12-04T14:36:49.021Z,11.73
2022-12-04T14:39:52.549Z,11.07
2022-12-04T14:42:55.930Z,11.63
2022-12-04T14:46:03.850Z,11.10
2022-12-04T14:49:15.722Z,11.23
2022-12-04T14:52:22.772Z,10.73
2022-12-04T14:55:31.950Z,10.23
2022-12-04T14:58:35.561Z,9.10
2022-12-04T15:01:39.925Z,9.00
2022-12-04T15:04:46.535Z,9.33
2022-12-04T15:07:50.508Z,9.77
2022-12-04T15:11:11.063Z,9.00
2022-12-04T15:14:14.860Z,8.70
2022-12-04T15:17:19.733Z,8.70
2022-12-04T15:20:24.513Z,9.07
2022-12-04T15:23:29.205Z,9.37
2022-12-04T15:26:32.111Z,8.57
2022-12-04T15:29:38.104Z,9.13
2022-12-04T15:32:42.338Z,7.63
2022-12-04T15:35:45.252Z,7.90
2022-12-04T15:38:48.538Z,8.10
2022-12-04T15:41:51.348Z,7.27
2022-12-04T15:44:55.437Z,7.90
2022-12-04T15:47:59.842Z,7.63
2022-12-04T15:51:03.723Z,8.50
2022-12-04T15:54:06.604Z,8.73
2022-12-04T15:57:19.606Z,8.70
2022-12-04T16:00:27.114Z,8.17
2022-12-04T16:03:32.248Z,9.53
2022-12-04T16:06:36.744Z,9.97
2022-12-04T16:09:39.621Z,9.97
2022-12-04T16:12:52.713Z,9.80
2022-12-04T16:15:58.635Z,10.90
2022-12-04T16:19:03.760Z,11.47
2022-12-04T16:22:14.619Z,10.57
2022-12-04T16:25:17.976Z,11.37
2022-12-04T16:28:20.817Z,10.50
2022-12-04T16:31:24.772Z,10.67
2022-12-04T16:34:29.010Z,10.47
2022-12-04T16:37:32.077Z,10.30
2022-12-04T16:40:34.954Z,12.40
2022-12-04T16:43:37.685Z,12.00
2022-12-04T16:46:40.568Z,11.63
2022-12-04T16:49:45.714Z,12.80
2022-12-04T16:52:48.481Z,15.30
2022-12-04T16:55:52.106Z,15.40
2022-12-04T16:58:54.936Z,13.77
2022-12-04T17:01:57.981Z,13.57
2022-12-04T17:05:02.367Z,14.70
2022-12-04T17:08:05.467Z,12.80
2022-12-04T17:11:08.455Z,13.60
2022-12-04T17:14:11.488Z,17.70
2022-12-04T17:17:14.413Z,17.40
2022-12-04T17:20:19.660Z,20.20
2022-12-04T17:23:22.499Z,20.70
2022-12-04T17:26:25.358Z,19.50
2022-12-04T17:29:28.139Z,20.10
2022-12-04T17:32:31.691Z,17.50
2022-12-04T17:35:35.928Z,18.07
2022-12-04T17:38:40.805Z,18.50
2022-12-04T17:41:43.565Z,17.70
2022-12-04T17:44:46.395Z,17.60
2022-12-04T17:47:49.180Z,16.63
2022-12-04T17:51:03.840Z,16.43
2022-12-04T17:54:06.992Z,17.30
2022-12-04T17:57:09.783Z,16.03
2022-12-04T18:00:13.079Z,15.60
2022-12-04T18:03:15.984Z,14.50
2022-12-04T18:06:21.216Z,13.60
2022-12-04T18:09:24.023Z,14.93
2022-12-04T18:12:26.858Z,15.97
2022-12-04T18:15:29.625Z,16.03
2022-12-04T18:18:32.801Z,16.67
2022-12-04T18:23:25.140Z,14.60
2022-12-04T18:26:29.788Z,14.73
2022-12-04T18:29:32.874Z,14.90
2022-12-04T18:32:35.999Z,13.30
2022-12-04T18:35:39.061Z,14.03
2022-12-04T18:38:43.755Z,14.37
2022-12-04T18:41:48.140Z,13.90
2022-12-04T18:44:51.165Z,13.23
2022-12-04T18:47:54.269Z,13.40
2022-12-04T18:50:57.516Z,13.07
2022-12-04T18:54:04.068Z,12.87
2022-12-04T18:57:07.181Z,11.83
2022-12-04T19:00:10.997Z,11.50
2022-12-04T19:03:16.906Z,11.60
2022-12-04T19:06:20.020Z,11.50
2022-12-04T19:09:47.152Z,11.07
2022-12-04T19:12:51.171Z,10.27
2022-12-04T19:15:54.205Z,10.40
2022-12-04T19:18:58.034Z,9.57
2022-12-04T19:22:02.217Z,10.50
2022-12-04T19:25:07.860Z,10.43
2022-12-04T19:28:10.861Z,9.30
2022-12-04T19:31:17.898Z,11.00
2022-12-04T19:34:20.977Z,9.90
2022-12-04T19:37:24.006Z,9.97
2022-12-04T19:40:28.490Z,10.07
2022-12-04T19:43:31.889Z,10.23
2022-12-04T19:46:34.931Z,10.40
2022-12-04T19:49:38.001Z,8.93
2022-12-04T19:52:41.226Z,9.20
2022-12-04T19:55:45.702Z,8.60
2022-12-04T19:58:48.853Z,9.13
2022-12-04T20:01:51.983Z,8.67
2022-12-04T20:04:55.223Z,9.03
2022-12-04T20:11:04.663Z,8.30
2022-12-04T20:14:09.141Z,8.20
2022-12-04T20:17:12.235Z,7.70
2022-12-04T20:20:15.603Z,7.83
2022-12-04T20:23:18.621Z,7.80
2022-12-04T20:26:25.163Z,7.40
2022-12-04T20:29:28.193Z,7.90
2022-12-04T20:32:31.307Z,8.10
2022-12-04T20:35:36.842Z,7.10
2022-12-04T20:38:41.003Z,7.20
2022-12-04T20:41:45.757Z,7.47
2022-12-04T20:44:48.831Z,7.50
2022-12-04T20:47:51.866Z,7.00
2022-12-04T20:50:55.043Z,6.73
2022-12-04T20:54:01.226Z,6.57
2022-12-04T20:57:05.811Z,6.70
2022-12-04T21:00:09.891Z,8.03
2022-12-04T21:03:12.943Z,7.93
2022-12-04T21:06:19.005Z,6.37
2022-12-04T21:09:24.746Z,7.70
2022-12-04T21:12:46.648Z,7.20
2022-12-04T21:16:05.558Z,6.87
2022-12-04T21:19:10.715Z,6.50
2022-12-04T21:22:13.851Z,6.23
2022-12-04T21:25:16.913Z,6.37
2022-12-04T21:28:21.371Z,6.43
2022-12-04T21:31:24.903Z,6.90
2022-12-04T21:34:28.117Z,6.00
2022-12-04T21:37:31.366Z,6.10
2022-12-04T21:40:40.661Z,5.60
2022-12-04T21:43:46.693Z,6.10
2022-12-04T21:46:50.116Z,5.10
2022-12-04T21:49:53.257Z,6.00
2022-12-04T21:52:56.277Z,6.20
2022-12-04T21:55:59.292Z,6.00
2022-12-04T21:59:03.947Z,5.63
2022-12-04T22:02:07.045Z,6.30
2022-12-04T22:05:10.641Z,5.20
2022-12-04T22:08:15.418Z,5.20
2022-12-04T22:11:19.976Z,4.93
2022-12-04T22:14:24.508Z,4.93
2022-12-04T22:17:30.681Z,5.20
2022-12-04T22:20:34.031Z,4.87
2022-12-04T22:23:37.916Z,4.77
2022-12-04T22:26:41.051Z,4.17
2022-12-04T22:30:02.400Z,4.27
2022-12-04T22:33:05.929Z,4.63
2022-12-04T22:36:11.616Z,4.93
2022-12-04T22:39:14.681Z,4.40
2022-12-04T22:42:17.699Z,4.43
2022-12-04T22:45:22.140Z,3.93
2022-12-04T22:48:26.120Z,4.60
2022-12-04T22:51:29.446Z,4.20
2022-12-04T22:54:32.471Z,4.60
2022-12-04T22:57:36.088Z,4.13
2022-12-04T23:00:40.616Z,4.40
2022-12-04T23:03:43.726Z,4.73
2022-12-04T23:06:46.729Z,3.80
2022-12-04T23:09:49.728Z,4.03
2022-12-04T23:12:52.724Z,4.33
2022-12-04T23:15:57.164Z,4.20
2022-12-04T23:19:00.563Z,3.40
2022-12-04T23:22:03.735Z,3.77
2022-12-04T23:25:07.853Z,3.50
2022-12-04T23:28:10.880Z,3.90
2022-12-04T23:31:16.157Z,3.53
2022-12-04T23:34:19.223Z,3.60
2022-12-04T23:37:22.289Z,3.13
2022-12-04T23:40:25.314Z,3.07
2022-12-04T23:43:28.334Z,3.57
2022-12-04T23:46:33.788Z,3.13
2022-12-04T23:49:36.817Z,3.43
2022-12-04T23:52:39.874Z,3.70
2022-12-04T23:55:42.989Z,3.60
2022-12-04T23:58:47.847Z,3.20
